Massanutten, Virginia
Current Conditions -  °F | °C
As of 8:15 AM on Thursday 23 Oct 2014 (Local Time) from KSHD Reporting Station
Scattered Clouds Scattered Clouds  
Wind Chill: 45°   Ceiling: Unl
Heat Index: 47°   Visibility: 10mi
Dew Point: 38°   Wind: 6mph
Humidity: 71%   Direction: 300°WNW
Pressure: 30.03"   Gusts: NA
Location:  38.3726°N, 78.7456°W
Report Text: KSHD 231215Z AUTO 30005KT 10SM SCT035 09/04 A3003 RMK AO2 T00850035
Loading
Personal Weather Stations






























Interactive Weather Map
Tropical Storm Tracking
New forecast layout! Learn more

10-Day Weather Forecast

Advertisements
Track Severe Weather on mobile